METAR Data
IDs: Format: Raw Decoded Include TAF

Data at: 1024 UTC 13 Aug 2022

ZYTL 131000Z 10005MPS 9999 FEW033 27/24 Q1004 NOSIG